sensor_id;sensor_type;location;lat;lon;timestamp;pressure;altitude;pressure_sealevel;temperature;humidity
32759;BME280;19125;52.360;9.974;2023-05-29T00:00:01;86020.56;;;-145.17;52.02
32759;BME280;19125;52.360;9.974;2023-05-29T00:02:30;86036.44;;;-145.17;51.93
32759;BME280;19125;52.360;9.974;2023-05-29T00:04:56;86068.19;;;-145.17;52.39
32759;BME280;19125;52.360;9.974;2023-05-29T00:07:21;86095.97;;;-145.17;52.69
32759;BME280;19125;52.360;9.974;2023-05-29T00:09:47;86076.13;;;-145.17;52.59
32759;BME280;19125;52.360;9.974;2023-05-29T00:12:12;86117.81;;;-145.17;53.13
32759;BME280;19125;52.360;9.974;2023-05-29T00:14:37;86191.22;;;-145.17;53.19
32759;BME280;19125;52.360;9.974;2023-05-29T00:17:03;86133.69;;;-145.17;53.60
32759;BME280;19125;52.360;9.974;2023-05-29T00:19:28;86147.56;;;-145.17;53.56
32759;BME280;19125;52.360;9.974;2023-05-29T00:21:54;86219.00;;;-145.17;53.74
32759;BME280;19125;52.360;9.974;2023-05-29T00:24:19;86173.38;;;-145.17;54.14
32759;BME280;19125;52.360;9.974;2023-05-29T00:26:46;86228.94;;;-145.17;54.48
32759;BME280;19125;52.360;9.974;2023-05-29T00:29:11;86222.97;;;-145.17;54.41
32759;BME280;19125;52.360;9.974;2023-05-29T00:31:36;86250.75;;;-145.17;54.89
32759;BME280;19125;52.360;9.974;2023-05-29T00:34:02;86268.63;;;-145.17;54.77
32759;BME280;19125;52.360;9.974;2023-05-29T00:36:27;86290.44;;;-145.17;54.97
32759;BME280;19125;52.360;9.974;2023-05-29T00:38:55;86312.28;;;-145.17;55.22
32759;BME280;19125;52.360;9.974;2023-05-29T00:41:20;86413.47;;;-145.17;55.44
32759;BME280;19125;52.360;9.974;2023-05-29T00:43:45;86326.16;;;-145.17;55.36
32759;BME280;19125;52.360;9.974;2023-05-29T00:46:13;86381.72;;;-145.17;55.72
32759;BME280;19125;52.360;9.974;2023-05-29T00:48:39;86379.75;;;-145.17;55.62
32759;BME280;19125;52.360;9.974;2023-05-29T00:51:06;86353.94;;;-145.17;55.83
32759;BME280;19125;52.360;9.974;2023-05-29T00:53:32;86401.56;;;-145.17;55.86
32759;BME280;19125;52.360;9.974;2023-05-29T00:55:58;86387.69;;;-145.17;55.86
32759;BME280;19125;52.360;9.974;2023-05-29T00:58:24;86357.91;;;-145.17;55.86
32759;BME280;19125;52.360;9.974;2023-05-29T01:00:49;86389.66;;;-145.17;56.13
32759;BME280;19125;52.360;9.974;2023-05-29T01:03:16;86385.69;;;-145.17;56.05
32759;BME280;19125;52.360;9.974;2023-05-29T01:05:42;86377.75;;;-145.17;56.23
32759;BME280;19125;52.360;9.974;2023-05-29T01:08:07;86411.50;;;-145.17;56.03
32759;BME280;19125;52.360;9.974;2023-05-29T01:10:33;86413.47;;;-145.17;56.17
32759;BME280;19125;52.360;9.974;2023-05-29T01:13:08;86435.31;;;-145.17;56.01
32759;BME280;19125;52.360;9.974;2023-05-29T01:18:25;86429.34;;;-145.17;56.33
32759;BME280;19125;52.360;9.974;2023-05-29T01:21:08;86457.16;;;-145.17;56.14
32759;BME280;19125;52.360;9.974;2023-05-29T01:23:52;86463.09;;;-145.17;56.01
32759;BME280;19125;52.360;9.974;2023-05-29T01:26:50;86423.41;;;-145.17;55.96
32759;BME280;19125;52.360;9.974;2023-05-29T01:29:26;86393.63;;;-145.17;56.15
32759;BME280;19125;52.360;9.974;2023-05-29T01:31:54;86445.25;;;-145.17;56.19
32759;BME280;19125;52.360;9.974;2023-05-29T01:34:19;86512.72;;;-145.17;56.15
32759;BME280;19125;52.360;9.974;2023-05-29T01:36:45;86411.50;;;-145.17;56.28
32759;BME280;19125;52.360;9.974;2023-05-29T01:39:12;86477.00;;;-145.17;56.15
32759;BME280;19125;52.360;9.974;2023-05-29T01:41:38;86477.00;;;-145.17;56.17
32759;BME280;19125;52.360;9.974;2023-05-29T01:44:06;86477.00;;;-145.17;56.11
32759;BME280;19125;52.360;9.974;2023-05-29T01:46:34;86463.09;;;-145.17;56.19
32759;BME280;19125;52.360;9.974;2023-05-29T01:49:01;86475.00;;;-145.17;56.44
32759;BME280;19125;52.360;9.974;2023-05-29T01:51:26;86473.03;;;-145.17;56.58
32759;BME280;19125;52.360;9.974;2023-05-29T01:53:52;86477.00;;;-145.17;56.68
32759;BME280;19125;52.360;9.974;2023-05-29T01:56:17;86508.75;;;-145.17;56.50
32759;BME280;19125;52.360;9.974;2023-05-29T01:58:43;86510.72;;;-145.17;56.74
32759;BME280;19125;52.360;9.974;2023-05-29T02:01:09;86556.38;;;-145.17;56.62
32759;BME280;19125;52.360;9.974;2023-05-29T02:03:35;86496.84;;;-145.17;56.84
32759;BME280;19125;52.360;9.974;2023-05-29T02:06:01;86637.75;;;-145.17;56.69
32759;BME280;19125;52.360;9.974;2023-05-29T02:08:27;86572.25;;;-145.17;56.84
32759;BME280;19125;52.360;9.974;2023-05-29T02:10:53;86651.63;;;-145.17;57.00
32759;BME280;19125;52.360;9.974;2023-05-29T02:13:18;86560.34;;;-145.17;56.93
32759;BME280;19125;52.360;9.974;2023-05-29T02:15:44;86552.41;;;-145.17;57.28
32759;BME280;19125;52.360;9.974;2023-05-29T02:18:10;86584.16;;;-145.17;57.09
32759;BME280;19125;52.360;9.974;2023-05-29T02:20:37;86592.09;;;-145.17;57.17
32759;BME280;19125;52.360;9.974;2023-05-29T02:23:03;86570.25;;;-145.17;57.10
32759;BME280;19125;52.360;9.974;2023-05-29T02:25:28;86621.88;;;-145.17;57.26
32759;BME280;19125;52.360;9.974;2023-05-29T02:27:53;86615.91;;;-145.17;57.19
32759;BME280;19125;52.360;9.974;2023-05-29T02:30:19;86637.75;;;-145.17;56.92
32759;BME280;19125;52.360;9.974;2023-05-29T02:32:44;86572.25;;;-145.17;56.83
32759;BME280;19125;52.360;9.974;2023-05-29T02:35:09;86544.47;;;-145.17;57.10
32759;BME280;19125;52.360;9.974;2023-05-29T02:37:35;86570.25;;;-145.17;56.72
32759;BME280;19125;52.360;9.974;2023-05-29T02:40:00;86584.16;;;-145.17;57.02
32759;BME280;19125;52.360;9.974;2023-05-29T02:42:25;86600.03;;;-145.17;56.75
32759;BME280;19125;52.360;9.974;2023-05-29T02:44:51;86588.13;;;-145.17;56.95
32759;BME280;19125;52.360;9.974;2023-05-29T02:47:16;86548.44;;;-145.17;57.16
32759;BME280;19125;52.360;9.974;2023-05-29T02:49:44;86598.03;;;-145.17;56.94
32759;BME280;19125;52.360;9.974;2023-05-29T02:52:09;86623.84;;;-145.17;56.98
32759;BME280;19125;52.360;9.974;2023-05-29T02:54:35;86687.34;;;-145.17;56.89
32759;BME280;19125;52.360;9.974;2023-05-29T02:57:00;86609.94;;;-145.17;56.88
32759;BME280;19125;52.360;9.974;2023-05-29T02:59:27;86677.44;;;-145.17;57.12
32759;BME280;19125;52.360;9.974;2023-05-29T03:01:52;86600.03;;;-145.17;57.04
32759;BME280;19125;52.360;9.974;2023-05-29T03:04:18;86651.63;;;-145.17;57.10
32759;BME280;19125;52.360;9.974;2023-05-29T03:06:43;86592.09;;;-145.17;56.82
32759;BME280;19125;52.360;9.974;2023-05-29T03:09:08;86621.88;;;-145.17;57.20
32759;BME280;19125;52.360;9.974;2023-05-29T03:11:34;86578.19;;;-145.17;56.96
32759;BME280;19125;52.360;9.974;2023-05-29T03:14:01;86661.56;;;-145.17;56.91
32759;BME280;19125;52.360;9.974;2023-05-29T03:16:27;86604.00;;;-145.17;57.20
32759;BME280;19125;52.360;9.974;2023-05-29T03:18:54;86586.13;;;-145.17;57.12
32759;BME280;19125;52.360;9.974;2023-05-29T03:21:20;86611.94;;;-145.17;56.90
32759;BME280;19125;52.360;9.974;2023-05-29T03:23:46;86617.88;;;-145.17;56.94
32759;BME280;19125;52.360;9.974;2023-05-29T03:26:12;86639.72;;;-145.17;56.71
32759;BME280;19125;52.360;9.974;2023-05-29T03:28:38;86631.78;;;-145.17;56.90
32759;BME280;19125;52.360;9.974;2023-05-29T03:31:03;86609.94;;;-145.17;56.47
32759;BME280;19125;52.360;9.974;2023-05-29T03:33:29;86580.19;;;-145.17;56.59
32759;BME280;19125;52.360;9.974;2023-05-29T03:35:54;86548.44;;;-145.17;56.22
32759;BME280;19125;52.360;9.974;2023-05-29T03:38:20;86508.75;;;-145.17;56.02
32759;BME280;19125;52.360;9.974;2023-05-29T03:40:45;86526.59;;;-145.17;55.84
32759;BME280;19125;52.360;9.974;2023-05-29T03:43:11;86572.25;;;-145.17;55.55
32759;BME280;19125;52.360;9.974;2023-05-29T03:45:36;86500.81;;;-145.17;55.62
32759;BME280;19125;52.360;9.974;2023-05-29T03:48:02;86455.16;;;-145.17;55.63
32759;BME280;19125;52.360;9.974;2023-05-29T03:50:28;86526.59;;;-145.17;55.53
32759;BME280;19125;52.360;9.974;2023-05-29T03:52:53;86457.16;;;-145.17;55.47
32759;BME280;19125;52.360;9.974;2023-05-29T03:55:18;86467.06;;;-145.17;55.34
32759;BME280;19125;52.360;9.974;2023-05-29T03:57:44;86433.31;;;-145.17;55.36
32759;BME280;19125;52.360;9.974;2023-05-29T04:00:10;86457.16;;;-145.17;55.09
32759;BME280;19125;52.360;9.974;2023-05-29T04:02:37;86510.72;;;-145.17;54.99
32759;BME280;19125;52.360;9.974;2023-05-29T04:05:07;86377.75;;;-145.17;54.84
32759;BME280;19125;52.360;9.974;2023-05-29T04:07:34;86413.47;;;-145.17;54.77
32759;BME280;19125;52.360;9.974;2023-05-29T04:09:59;86361.88;;;-145.17;54.34
32759;BME280;19125;52.360;9.974;2023-05-29T04:12:25;86385.69;;;-145.17;53.94
32759;BME280;19125;52.360;9.974;2023-05-29T04:14:50;86294.41;;;-145.17;53.66
32759;BME280;19125;52.360;9.974;2023-05-29T04:17:15;86274.56;;;-145.17;53.48
32759;BME280;19125;52.360;9.974;2023-05-29T04:19:41;86290.44;;;-145.17;53.11
32759;BME280;19125;52.360;9.974;2023-05-29T04:22:06;86262.66;;;-145.17;52.87
32759;BME280;19125;52.360;9.974;2023-05-29T04:24:33;86246.78;;;-145.17;52.59
32759;BME280;19125;52.360;9.974;2023-05-29T04:26:58;86272.59;;;-145.17;52.40
32759;BME280;19125;52.360;9.974;2023-05-29T04:29:26;86207.09;;;-145.17;51.98
32759;BME280;19125;52.360;9.974;2023-05-29T04:31:51;86201.16;;;-145.17;51.70
32759;BME280;19125;52.360;9.974;2023-05-29T04:34:16;86215.03;;;-145.17;51.58
32759;BME280;19125;52.360;9.974;2023-05-29T04:36:42;86262.66;;;-145.17;51.31
32759;BME280;19125;52.360;9.974;2023-05-29T04:39:09;86155.50;;;-145.17;51.52
32759;BME280;19125;52.360;9.974;2023-05-29T04:41:35;86099.94;;;-145.17;50.59
32759;BME280;19125;52.360;9.974;2023-05-29T04:44:00;86125.75;;;-145.17;50.53
32759;BME280;19125;52.360;9.974;2023-05-29T04:46:26;86107.88;;;-145.17;50.24
32759;BME280;19125;52.360;9.974;2023-05-29T04:48:52;86143.59;;;-145.17;50.16
32759;BME280;19125;52.360;9.974;2023-05-29T04:51:21;86070.19;;;-145.17;50.02
32759;BME280;19125;52.360;9.974;2023-05-29T04:53:46;86090.03;;;-145.17;49.80
32759;BME280;19125;52.360;9.974;2023-05-29T04:56:15;86159.47;;;-145.17;49.73
32759;BME280;19125;52.360;9.974;2023-05-29T04:58:41;86099.94;;;-145.17;49.12
32759;BME280;19125;52.360;9.974;2023-05-29T05:01:07;86060.25;;;-145.17;49.32
32759;BME280;19125;52.360;9.974;2023-05-29T05:03:42;86072.16;;;-145.17;49.04
32759;BME280;19125;52.360;9.974;2023-05-29T05:06:09;86010.66;;;-145.17;48.51
32759;BME280;19125;52.360;9.974;2023-05-29T05:08:34;85913.41;;;-145.17;47.95
32759;BME280;19125;52.360;9.974;2023-05-29T05:11:00;86000.72;;;-145.17;47.23
32759;BME280;19125;52.360;9.974;2023-05-29T05:13:26;85968.97;;;-145.17;46.86
32759;BME280;19125;52.360;9.974;2023-05-29T05:15:54;85937.22;;;-145.17;46.82
32759;BME280;19125;52.360;9.974;2023-05-29T05:18:20;85901.53;;;-145.17;45.54
32759;BME280;19125;52.360;9.974;2023-05-29T05:20:45;85939.22;;;-145.17;45.91
32759;BME280;19125;52.360;9.974;2023-05-29T05:23:11;85857.88;;;-145.17;45.35
32759;BME280;19125;52.360;9.974;2023-05-29T05:25:37;85869.78;;;-145.17;45.19
32759;BME280;19125;52.360;9.974;2023-05-29T05:28:04;85861.84;;;-145.17;44.79
32759;BME280;19125;52.360;9.974;2023-05-29T05:30:30;85853.91;;;-145.17;44.19
32759;BME280;19125;52.360;9.974;2023-05-29T05:32:55;85838.03;;;-145.17;44.27
32759;BME280;19125;52.360;9.974;2023-05-29T05:35:21;85794.38;;;-145.17;44.10
32759;BME280;19125;52.360;9.974;2023-05-29T05:37:47;85822.16;;;-145.17;43.86
32759;BME280;19125;52.360;9.974;2023-05-29T05:40:12;85879.69;;;-145.17;43.55
32759;BME280;19125;52.360;9.974;2023-05-29T05:42:37;85943.19;;;-145.17;44.05
32759;BME280;19125;52.360;9.974;2023-05-29T05:45:03;85816.19;;;-145.17;44.09
32759;BME280;19125;52.360;9.974;2023-05-29T05:47:29;85790.41;;;-145.17;44.13
32759;BME280;19125;52.360;9.974;2023-05-29T05:49:55;85873.75;;;-145.17;44.33
32759;BME280;19125;52.360;9.974;2023-05-29T05:52:21;85875.72;;;-145.17;44.22
32759;BME280;19125;52.360;9.974;2023-05-29T05:54:47;85853.91;;;-145.17;44.02
32759;BME280;19125;52.360;9.974;2023-05-29T05:57:13;85849.94;;;-145.17;43.60
32759;BME280;19125;52.360;9.974;2023-05-29T05:59:38;85822.16;;;-145.17;43.17
32759;BME280;19125;52.360;9.974;2023-05-29T06:02:04;85851.91;;;-145.17;42.99
32759;BME280;19125;52.360;9.974;2023-05-29T06:04:29;85802.31;;;-145.17;43.11
32759;BME280;19125;52.360;9.974;2023-05-29T06:06:55;85752.69;;;-145.17;43.03
32759;BME280;19125;52.360;9.974;2023-05-29T06:09:21;85766.59;;;-145.17;42.47
32759;BME280;19125;52.360;9.974;2023-05-29T06:11:47;85717.00;;;-145.17;42.39
32759;BME280;19125;52.360;9.974;2023-05-29T06:14:13;85748.72;;;-145.17;42.15
32759;BME280;19125;52.360;9.974;2023-05-29T06:16:39;85752.69;;;-145.17;42.47
32759;BME280;19125;52.360;9.974;2023-05-29T06:19:04;85742.78;;;-145.17;42.42
32759;BME280;19125;52.360;9.974;2023-05-29T06:21:30;85808.25;;;-145.17;42.51
32759;BME280;19125;52.360;9.974;2023-05-29T06:23:56;85816.19;;;-145.17;42.38
32759;BME280;19125;52.360;9.974;2023-05-29T06:26:22;85768.56;;;-145.17;42.43
32759;BME280;19125;52.360;9.974;2023-05-29T06:28:48;85742.78;;;-145.17;42.61
32759;BME280;19125;52.360;9.974;2023-05-29T06:31:14;85705.09;;;-145.17;41.99
32759;BME280;19125;52.360;9.974;2023-05-29T06:33:39;85718.97;;;-145.17;41.88
32759;BME280;19125;52.360;9.974;2023-05-29T06:36:04;85756.66;;;-145.17;42.06
32759;BME280;19125;52.360;9.974;2023-05-29T06:38:30;85707.06;;;-145.17;42.35
32759;BME280;19125;52.360;9.974;2023-05-29T06:40:55;85770.56;;;-145.17;42.19
32759;BME280;19125;52.360;9.974;2023-05-29T06:43:21;85786.44;;;-145.17;41.79
32759;BME280;19125;52.360;9.974;2023-05-29T06:45:46;85748.72;;;-145.17;42.33
32759;BME280;19125;52.360;9.974;2023-05-29T06:48:11;85726.91;;;-145.17;42.17
32759;BME280;19125;52.360;9.974;2023-05-29T06:50:37;85734.84;;;-145.17;42.11
32759;BME280;19125;52.360;9.974;2023-05-29T06:53:02;85762.63;;;-145.17;42.13
32759;BME280;19125;52.360;9.974;2023-05-29T06:55:28;85707.06;;;-145.17;42.08
32759;BME280;19125;52.360;9.974;2023-05-29T06:57:53;85693.19;;;-145.17;41.95
32759;BME280;19125;52.360;9.974;2023-05-29T07:00:19;85697.16;;;-145.17;41.76
32759;BME280;19125;52.360;9.974;2023-05-29T07:02:44;85699.13;;;-145.17;41.42
32759;BME280;19125;52.360;9.974;2023-05-29T07:05:09;85643.56;;;-145.17;41.31
32759;BME280;19125;52.360;9.974;2023-05-29T07:07:35;85665.41;;;-145.17;41.24
32759;BME280;19125;52.360;9.974;2023-05-29T07:10:00;85711.03;;;-145.17;41.26
32759;BME280;19125;52.360;9.974;2023-05-29T07:12:26;85677.31;;;-145.17;41.42
32759;BME280;19125;52.360;9.974;2023-05-29T07:14:54;85635.63;;;-145.17;40.89
32759;BME280;19125;52.360;9.974;2023-05-29T07:17:20;85651.50;;;-145.17;40.67
32759;BME280;19125;52.360;9.974;2023-05-29T07:19:46;85611.81;;;-145.17;40.70
32759;BME280;19125;52.360;9.974;2023-05-29T07:22:11;85653.50;;;-145.17;40.11
32759;BME280;19125;52.360;9.974;2023-05-29T07:24:37;85621.75;;;-145.17;40.27
32759;BME280;19125;52.360;9.974;2023-05-29T07:27:02;85580.09;;;-145.17;40.38
32759;BME280;19125;52.360;9.974;2023-05-29T07:29:28;85544.38;;;-145.17;40.23
32759;BME280;19125;52.360;9.974;2023-05-29T07:31:53;85522.53;;;-145.17;39.42
32759;BME280;19125;52.360;9.974;2023-05-29T07:34:19;85516.59;;;-145.17;38.95
32759;BME280;19125;52.360;9.974;2023-05-29T07:36:57;85552.31;;;-145.17;38.79
32759;BME280;19125;52.360;9.974;2023-05-29T07:39:23;85532.47;;;-145.17;38.46
32759;BME280;19125;52.360;9.974;2023-05-29T07:41:49;85516.59;;;-145.17;38.51
32759;BME280;19125;52.360;9.974;2023-05-29T07:44:14;85482.88;;;-145.17;38.27
32759;BME280;19125;52.360;9.974;2023-05-29T07:46:40;85512.63;;;-145.17;37.75
32759;BME280;19125;52.360;9.974;2023-05-29T07:49:05;85465.00;;;-145.17;36.99
32759;BME280;19125;52.360;9.974;2023-05-29T07:51:30;85468.97;;;-145.17;37.53
32759;BME280;19125;52.360;9.974;2023-05-29T07:53:56;85530.47;;;-145.17;37.86
32759;BME280;19125;52.360;9.974;2023-05-29T07:56:21;85482.88;;;-145.17;38.17
32759;BME280;19125;52.360;9.974;2023-05-29T07:58:47;85500.72;;;-145.17;37.73
32759;BME280;19125;52.360;9.974;2023-05-29T08:01:12;85441.19;;;-145.17;37.46
32759;BME280;19125;52.360;9.974;2023-05-29T08:03:38;85413.41;;;-145.17;37.27
32759;BME280;19125;52.360;9.974;2023-05-29T08:06:06;85445.16;;;-145.17;36.97
32759;BME280;19125;52.360;9.974;2023-05-29T08:08:31;85381.69;;;-145.17;36.83
32759;BME280;19125;52.360;9.974;2023-05-29T08:10:57;85413.41;;;-145.17;36.30
32759;BME280;19125;52.360;9.974;2023-05-29T08:13:22;85427.31;;;-145.17;36.48
32759;BME280;19125;52.360;9.974;2023-05-29T08:15:48;85437.22;;;-145.17;36.18
32759;BME280;19125;52.360;9.974;2023-05-29T08:18:13;85488.81;;;-145.17;36.15
32759;BME280;19125;52.360;9.974;2023-05-29T08:20:39;85484.84;;;-145.17;36.04
32759;BME280;19125;52.360;9.974;2023-05-29T08:23:05;85395.56;;;-145.17;35.63
32759;BME280;19125;52.360;9.974;2023-05-29T08:25:30;85401.53;;;-145.17;35.56
32759;BME280;19125;52.360;9.974;2023-05-29T08:27:57;85429.28;;;-145.17;35.34
32759;BME280;19125;52.360;9.974;2023-05-29T08:30:22;85423.34;;;-145.17;35.84
32759;BME280;19125;52.360;9.974;2023-05-29T08:32:47;85365.81;;;-145.17;35.50
32759;BME280;19125;52.360;9.974;2023-05-29T08:35:13;85423.34;;;-145.17;35.23
32759;BME280;19125;52.360;9.974;2023-05-29T08:37:39;85377.72;;;-145.17;35.26
32759;BME280;19125;52.360;9.974;2023-05-29T08:40:05;85334.06;;;-145.17;35.35
32759;BME280;19125;52.360;9.974;2023-05-29T08:42:37;85338.03;;;-145.17;35.18
32759;BME280;19125;52.360;9.974;2023-05-29T08:45:05;85361.84;;;-145.17;34.72
32759;BME280;19125;52.360;9.974;2023-05-29T08:47:33;85328.13;;;-145.17;34.48
32759;BME280;19125;52.360;9.974;2023-05-29T08:50:00;85338.03;;;-145.17;34.04
32759;BME280;19125;52.360;9.974;2023-05-29T08:52:27;85322.16;;;-145.17;34.24
32759;BME280;19125;52.360;9.974;2023-05-29T08:54:55;85234.88;;;-145.17;33.81
32759;BME280;19125;52.360;9.974;2023-05-29T08:57:22;85298.34;;;-145.17;34.12
32759;BME280;19125;52.360;9.974;2023-05-29T08:59:51;85334.06;;;-145.17;33.79
32759;BME280;19125;52.360;9.974;2023-05-29T09:02:17;85340.00;;;-145.17;33.60
32759;BME280;19125;52.360;9.974;2023-05-29T09:04:43;85387.63;;;-145.17;34.09
32759;BME280;19125;52.360;9.974;2023-05-29T09:07:16;85288.44;;;-145.17;33.13
32759;BME280;19125;52.360;9.974;2023-05-29T09:09:44;85363.81;;;-145.17;33.00
32759;BME280;19125;52.360;9.974;2023-05-29T09:12:10;85353.91;;;-145.17;32.61
32759;BME280;19125;52.360;9.974;2023-05-29T09:14:36;85328.13;;;-145.17;32.60
32759;BME280;19125;52.360;9.974;2023-05-29T09:17:03;85322.16;;;-145.17;32.89
32759;BME280;19125;52.360;9.974;2023-05-29T09:19:29;85242.81;;;-145.17;32.94
32759;BME280;19125;52.360;9.974;2023-05-29T09:22:13;85258.69;;;-145.17;32.32
32759;BME280;19125;52.360;9.974;2023-05-29T09:24:40;85217.00;;;-145.17;32.15
32759;BME280;19125;52.360;9.974;2023-05-29T09:27:06;85222.97;;;-145.17;32.73
32759;BME280;19125;52.360;9.974;2023-05-29T09:32:09;85230.91;;;-145.17;31.91
32759;BME280;19125;52.360;9.974;2023-05-29T09:34:36;85217.00;;;-145.17;32.34
32759;BME280;19125;52.360;9.974;2023-05-29T09:37:11;85268.59;;;-145.17;33.08
32759;BME280;19125;52.360;9.974;2023-05-29T09:39:50;85195.19;;;-145.17;32.77
32759;BME280;19125;52.360;9.974;2023-05-29T09:42:18;85246.78;;;-145.17;32.59
32759;BME280;19125;52.360;9.974;2023-05-29T09:44:46;85139.63;;;-145.17;32.13
32759;BME280;19125;52.360;9.974;2023-05-29T09:47:17;85187.25;;;-145.17;32.26
32759;BME280;19125;52.360;9.974;2023-05-29T09:49:43;85092.03;;;-145.17;32.05
32759;BME280;19125;52.360;9.974;2023-05-29T09:52:13;85090.03;;;-145.17;31.80
32759;BME280;19125;52.360;9.974;2023-05-29T09:54:42;85092.03;;;-145.17;31.85
32759;BME280;19125;52.360;9.974;2023-05-29T09:57:12;85084.09;;;-145.17;31.75
32759;BME280;19125;52.360;9.974;2023-05-29T09:59:39;85024.56;;;-145.17;32.06
32759;BME280;19125;52.360;9.974;2023-05-29T10:02:04;85036.47;;;-145.17;31.21
32759;BME280;19125;52.360;9.974;2023-05-29T10:04:33;85020.59;;;-145.17;31.18
32759;BME280;19125;52.360;9.974;2023-05-29T10:07:03;85038.47;;;-145.17;31.01
32759;BME280;19125;52.360;9.974;2023-05-29T10:09:30;85024.56;;;-145.17;31.09
32759;BME280;19125;52.360;9.974;2023-05-29T10:12:00;85036.47;;;-145.17;31.27
32759;BME280;19125;52.360;9.974;2023-05-29T10:14:29;85088.06;;;-145.17;30.81
32759;BME280;19125;52.360;9.974;2023-05-29T10:16:58;84996.81;;;-145.17;30.93
32759;BME280;19125;52.360;9.974;2023-05-29T10:19:29;85048.38;;;-145.17;30.69
32759;BME280;19125;52.360;9.974;2023-05-29T10:21:55;85026.56;;;-145.17;30.55
32759;BME280;19125;52.360;9.974;2023-05-29T10:24:22;85036.47;;;-145.17;29.82
32759;BME280;19125;52.360;9.974;2023-05-29T10:26:49;85054.34;;;-145.17;30.06
32759;BME280;19125;52.360;9.974;2023-05-29T10:29:29;85064.25;;;-145.17;30.11
32759;BME280;19125;52.360;9.974;2023-05-29T10:34:44;85066.25;;;-145.17;29.88
32759;BME280;19125;52.360;9.974;2023-05-29T10:37:35;85060.28;;;-145.17;30.28
32759;BME280;19125;52.360;9.974;2023-05-29T10:40:10;85024.56;;;-145.17;30.10
32759;BME280;19125;52.360;9.974;2023-05-29T10:42:51;85018.63;;;-145.17;30.14
32759;BME280;19125;52.360;9.974;2023-05-29T10:47:55;84976.97;;;-145.17;29.47
32759;BME280;19125;52.360;9.974;2023-05-29T10:50:43;84973.00;;;-145.17;29.25
32759;BME280;19125;52.360;9.974;2023-05-29T10:53:14;84973.00;;;-145.17;29.20
32759;BME280;19125;52.360;9.974;2023-05-29T10:55:40;84937.28;;;-145.17;29.21
32759;BME280;19125;52.360;9.974;2023-05-29T10:58:06;84984.91;;;-145.17;29.52
32759;BME280;19125;52.360;9.974;2023-05-29T11:00:32;84949.19;;;-145.17;29.28
32759;BME280;19125;52.360;9.974;2023-05-29T11:03:02;84889.69;;;-145.17;28.93
32759;BME280;19125;52.360;9.974;2023-05-29T11:05:28;84957.13;;;-145.17;28.36
32759;BME280;19125;52.360;9.974;2023-05-29T11:07:58;84998.78;;;-145.17;28.70
32759;BME280;19125;52.360;9.974;2023-05-29T11:10:43;84923.41;;;-145.17;28.88
32759;BME280;19125;52.360;9.974;2023-05-29T11:13:09;84955.16;;;-145.17;28.83
32759;BME280;19125;52.360;9.974;2023-05-29T11:15:36;84933.31;;;-145.17;28.71
32759;BME280;19125;52.360;9.974;2023-05-29T11:18:08;84917.47;;;-145.17;28.77
32759;BME280;19125;52.360;9.974;2023-05-29T11:20:43;84905.56;;;-145.17;28.27
32759;BME280;19125;52.360;9.974;2023-05-29T11:23:15;84945.22;;;-145.17;27.90
32759;BME280;19125;52.360;9.974;2023-05-29T11:25:44;84873.81;;;-145.17;28.18
32759;BME280;19125;52.360;9.974;2023-05-29T11:28:10;84933.31;;;-145.17;28.58
32759;BME280;19125;52.360;9.974;2023-05-29T11:30:47;84877.78;;;-145.17;28.04
32759;BME280;19125;52.360;9.974;2023-05-29T11:33:33;84913.50;;;-145.17;26.73
32759;BME280;19125;52.360;9.974;2023-05-29T11:36:00;84903.56;;;-145.17;27.20
32759;BME280;19125;52.360;9.974;2023-05-29T11:38:27;84865.88;;;-145.17;28.06
32759;BME280;19125;52.360;9.974;2023-05-29T11:40:56;84905.56;;;-145.17;28.33
32759;BME280;19125;52.360;9.974;2023-05-29T11:43:24;84921.41;;;-145.17;28.21
32759;BME280;19125;52.360;9.974;2023-05-29T11:45:50;84859.94;;;-145.17;27.78
32759;BME280;19125;52.360;9.974;2023-05-29T11:48:15;84941.25;;;-145.17;28.06
32759;BME280;19125;52.360;9.974;2023-05-29T11:50:41;84917.47;;;-145.17;28.34
32759;BME280;19125;52.360;9.974;2023-05-29T11:53:07;84919.44;;;-145.17;28.67
32759;BME280;19125;52.360;9.974;2023-05-29T11:55:33;84842.06;;;-145.17;28.30
32759;BME280;19125;52.360;9.974;2023-05-29T11:58:00;84840.09;;;-145.17;28.37
32759;BME280;19125;52.360;9.974;2023-05-29T12:00:30;84770.66;;;-145.17;27.86
32759;BME280;19125;52.360;9.974;2023-05-29T12:02:57;84832.16;;;-145.17;27.64
32759;BME280;19125;52.360;9.974;2023-05-29T12:05:25;84848.03;;;-145.17;28.18
32759;BME280;19125;52.360;9.974;2023-05-29T12:07:52;84899.59;;;-145.17;28.06
32759;BME280;19125;52.360;9.974;2023-05-29T12:10:19;84863.91;;;-145.17;28.24
32759;BME280;19125;52.360;9.974;2023-05-29T12:12:53;84869.84;;;-145.17;28.17
32759;BME280;19125;52.360;9.974;2023-05-29T12:15:19;84820.25;;;-145.17;28.16
32759;BME280;19125;52.360;9.974;2023-05-29T12:17:45;84778.59;;;-145.17;27.68
32759;BME280;19125;52.360;9.974;2023-05-29T12:20:11;84850.00;;;-145.17;27.82
32759;BME280;19125;52.360;9.974;2023-05-29T12:22:39;84861.91;;;-145.17;27.98
32759;BME280;19125;52.360;9.974;2023-05-29T12:25:10;84826.19;;;-145.17;27.43
32759;BME280;19125;52.360;9.974;2023-05-29T12:27:43;84893.66;;;-145.17;27.67
32759;BME280;19125;52.360;9.974;2023-05-29T12:30:10;84857.94;;;-145.17;27.65
32759;BME280;19125;52.360;9.974;2023-05-29T12:32:39;84877.78;;;-145.17;27.53
32759;BME280;19125;52.360;9.974;2023-05-29T12:37:45;84877.78;;;-145.17;27.17
32759;BME280;19125;52.360;9.974;2023-05-29T12:40:16;84818.25;;;-145.17;27.36
32759;BME280;19125;52.360;9.974;2023-05-29T12:42:42;84814.31;;;-145.17;26.93
32759;BME280;19125;52.360;9.974;2023-05-29T12:45:07;84762.72;;;-145.17;27.15
32759;BME280;19125;52.360;9.974;2023-05-29T12:47:33;84762.72;;;-145.17;26.67
32759;BME280;19125;52.360;9.974;2023-05-29T12:50:00;84762.72;;;-145.17;26.24
32759;BME280;19125;52.360;9.974;2023-05-29T12:52:29;84721.06;;;-145.17;26.38